Terminal Aerodrome Forecast
Issued by NWS Albuquerque, NM

Home | Current Version | Previous Version | Text Only | Print | Product List | Glossary On
Versions: 1 2 3 4 5 6 7 8 9 10 11 12
000
FTUS45 KABQ 181733
TAFABQ
TAF
KABQ 181733Z 1818/1918 33006KT P6SM BKN250
     FM190100 08006KT P6SM BKN250
     FM191200 VRB06KT P6SM BKN120=

USA.gov is the U.S. government's official web portal to all federal, state and local government web resources and services.